Rye, New York
Current Conditions -  °F | °C
As of 4:56 PM on Sunday 21 Dec 2014 (Local Time) from KHPN Reporting Station
Light Snow Light Snow  
Wind Chill: 25°   Ceiling: 500
Heat Index: 32°   Visibility: 1.5mi
Dew Point: 29°   Wind: 8mph
Humidity: 88%   Direction: 340°NNW
Pressure: 30.27"   Gusts: NA
Location:  40.98°N, 73.68°W
Report Text: KHPN 212156Z 34007KT 1 1/2SM -SN BR OVC005 00/M02 A3027 RMK AO2 SNB46 SLP260 P0000 T00001017
Loading
Personal Weather Stations






























Interactive Weather Map New forecast layout! Learn more

10-Day Weather Forecast

Advertisements
Track Severe Weather on mobile